createdAt,value
2022-08-30T00:00:41.097Z,10.06
2022-08-30T00:05:45.016Z,10.10
2022-08-30T00:10:47.871Z,10.04
2022-08-30T00:15:51.140Z,10.15
2022-08-30T00:20:54.178Z,10.23
2022-08-30T00:25:58.600Z,10.41
2022-08-30T00:31:02.615Z,10.59
2022-08-30T00:36:05.650Z,10.61
2022-08-30T00:41:08.571Z,10.65
2022-08-30T00:46:11.400Z,10.74
2022-08-30T00:51:14.913Z,10.74
2022-08-30T00:56:18.363Z,10.66
2022-08-30T01:01:21.470Z,10.86
2022-08-30T01:06:26.506Z,10.88
2022-08-30T01:11:38.274Z,10.97
2022-08-30T01:16:43.381Z,11.06
2022-08-30T01:21:53.469Z,11.27
2022-08-30T01:26:56.721Z,11.43
2022-08-30T01:31:59.558Z,11.64
2022-08-30T01:37:02.569Z,11.78
2022-08-30T01:42:06.321Z,11.81
2022-08-30T01:47:09.008Z,12.03
2022-08-30T01:52:13.033Z,12.21
2022-08-30T01:57:18.112Z,12.43
2022-08-30T02:02:26.346Z,12.49
2022-08-30T02:07:29.301Z,12.54
2022-08-30T02:12:32.193Z,12.58
2022-08-30T02:17:34.962Z,12.83
2022-08-30T02:22:37.681Z,13.19
2022-08-30T02:27:40.435Z,13.49
2022-08-30T02:32:45.542Z,13.80
2022-08-30T02:37:48.389Z,13.94
2022-08-30T02:42:51.992Z,14.08
2022-08-30T02:47:56.950Z,14.43
2022-08-30T02:52:59.784Z,14.57
2022-08-30T02:58:03.318Z,14.70
2022-08-30T03:03:07.009Z,15.09
2022-08-30T03:08:10.392Z,15.48
2022-08-30T03:13:13.475Z,15.64
2022-08-30T03:18:16.839Z,15.82
2022-08-30T03:23:21.569Z,16.22
2022-08-30T03:28:24.987Z,16.54
2022-08-30T03:33:27.722Z,17.06
2022-08-30T03:38:31.480Z,17.42
2022-08-30T03:43:34.851Z,17.53
2022-08-30T03:48:37.983Z,18.15
2022-08-30T03:53:40.861Z,18.40
2022-08-30T03:58:43.852Z,18.52
2022-08-30T04:03:47.070Z,18.62
2022-08-30T04:08:50.000Z,18.35
2022-08-30T04:13:53.711Z,18.70
2022-08-30T04:18:56.607Z,18.84
2022-08-30T04:23:59.427Z,18.88
2022-08-30T04:29:02.815Z,19.32
2022-08-30T04:34:05.622Z,19.06
2022-08-30T04:39:08.716Z,19.29
2022-08-30T04:44:19.110Z,19.60
2022-08-30T04:49:23.449Z,20.19
2022-08-30T04:54:26.197Z,20.63
2022-08-30T04:59:29.210Z,20.76
2022-08-30T05:04:32.050Z,20.87
2022-08-30T05:09:34.775Z,20.81
2022-08-30T05:14:39.040Z,20.63
2022-08-30T05:19:41.917Z,20.30
2022-08-30T05:24:44.624Z,19.77
2022-08-30T05:29:47.422Z,19.46
2022-08-30T05:34:51.338Z,19.39
2022-08-30T05:39:54.240Z,18.93
2022-08-30T05:44:56.984Z,18.88
2022-08-30T05:49:59.919Z,18.66
2022-08-30T05:55:04.526Z,18.40
2022-08-30T06:00:10.871Z,18.42
2022-08-30T06:05:16.434Z,18.98
2022-08-30T06:10:19.242Z,20.00
2022-08-30T06:15:22.155Z,20.80
2022-08-30T06:20:25.444Z,21.56
2022-08-30T06:25:28.359Z,21.98
2022-08-30T06:30:44.898Z,21.54
2022-08-30T06:35:58.346Z,21.75
2022-08-30T06:41:09.314Z,21.41
2022-08-30T06:46:15.083Z,21.52
2022-08-30T06:51:31.982Z,21.88
2022-08-30T06:56:37.510Z,22.32
2022-08-30T07:01:40.394Z,22.63
2022-08-30T07:11:45.819Z,22.67
2022-08-30T07:16:51.203Z,22.45
2022-08-30T07:21:55.258Z,22.32
2022-08-30T07:26:58.263Z,22.69
2022-08-30T07:32:01.058Z,22.37
2022-08-30T07:37:03.815Z,22.11
2022-08-30T07:42:06.956Z,21.98
2022-08-30T07:47:10.185Z,21.95
2022-08-30T07:52:13.055Z,22.40
2022-08-30T07:57:15.906Z,22.15
2022-08-30T08:02:19.680Z,21.76
2022-08-30T08:07:22.559Z,21.89
2022-08-30T08:12:25.453Z,22.21
2022-08-30T08:17:28.280Z,21.88
2022-08-30T08:22:30.994Z,22.01
2022-08-30T08:27:33.954Z,21.71
2022-08-30T08:32:36.785Z,21.15
2022-08-30T08:37:40.511Z,20.73
2022-08-30T08:43:09.407Z,20.36
2022-08-30T08:48:32.059Z,20.43
2022-08-30T08:54:07.265Z,20.69
2022-08-30T08:59:12.003Z,20.18
2022-08-30T09:04:27.930Z,20.08
2022-08-30T09:09:39.329Z,20.74
2022-08-30T09:14:48.052Z,20.62
2022-08-30T09:19:54.068Z,21.55
2022-08-30T09:25:23.587Z,21.55
2022-08-30T09:30:31.760Z,21.30
2022-08-30T09:35:37.272Z,21.90
2022-08-30T09:40:51.806Z,21.79
2022-08-30T09:46:00.628Z,21.31
2022-08-30T09:51:15.372Z,20.83
2022-08-30T09:56:30.290Z,20.72
2022-08-30T10:01:37.860Z,20.97
2022-08-30T10:06:51.904Z,20.81
2022-08-30T10:12:13.938Z,20.74
2022-08-30T10:17:40.735Z,20.80
2022-08-30T10:22:51.775Z,20.81
2022-08-30T10:28:00.675Z,21.16
2022-08-30T10:33:25.427Z,21.41
2022-08-30T10:38:30.309Z,21.30
2022-08-30T10:43:56.794Z,21.02
2022-08-30T10:49:02.511Z,20.71
2022-08-30T10:54:19.269Z,20.60
2022-08-30T10:59:21.974Z,20.52
2022-08-30T11:04:45.419Z,20.45
2022-08-30T11:10:13.692Z,20.41
2022-08-30T11:15:26.590Z,20.34
2022-08-30T11:20:40.883Z,20.27
2022-08-30T11:26:06.585Z,20.17
2022-08-30T11:31:12.848Z,19.96
2022-08-30T11:36:45.989Z,19.97
2022-08-30T11:42:29.976Z,19.84
2022-08-30T11:47:41.267Z,19.48
2022-08-30T11:53:07.991Z,19.21
2022-08-30T11:58:31.796Z,18.90
2022-08-30T12:03:35.433Z,18.66
2022-08-30T12:08:47.243Z,18.58
2022-08-30T12:13:54.107Z,18.60
2022-08-30T12:19:11.028Z,18.53
2022-08-30T12:24:25.710Z,18.53
2022-08-30T12:29:31.544Z,18.82
2022-08-30T12:34:51.645Z,18.84
2022-08-30T12:40:06.045Z,18.55
2022-08-30T12:45:15.097Z,18.15
2022-08-30T12:50:24.982Z,17.87
2022-08-30T12:55:34.178Z,17.69
2022-08-30T13:00:40.045Z,17.59
2022-08-30T13:05:48.384Z,17.51
2022-08-30T13:11:08.235Z,17.30
2022-08-30T13:16:18.641Z,17.07
2022-08-30T13:21:31.468Z,16.87
2022-08-30T13:26:37.173Z,16.72
2022-08-30T13:31:39.948Z,16.65
2022-08-30T13:36:47.895Z,16.64
2022-08-30T13:41:51.536Z,16.67
2022-08-30T13:47:32.121Z,16.99
2022-08-30T13:52:26.110Z,17.08
2022-08-30T14:03:00.228Z,16.98
2022-08-30T14:08:05.116Z,16.92
2022-08-30T14:13:10.577Z,16.87
2022-08-30T14:18:17.667Z,16.81
2022-08-30T14:23:21.090Z,16.72
2022-08-30T14:28:24.889Z,16.76
2022-08-30T14:33:27.641Z,16.77
2022-08-30T14:38:30.398Z,16.68
2022-08-30T14:43:33.511Z,16.59
2022-08-30T14:48:38.855Z,16.39
2022-08-30T14:53:42.177Z,16.40
2022-08-30T14:58:45.015Z,16.34
2022-08-30T15:03:48.512Z,16.25
2022-08-30T15:08:52.737Z,16.30
2022-08-30T15:13:55.537Z,16.18
2022-08-30T15:18:58.922Z,16.10
2022-08-30T15:24:02.616Z,16.24
2022-08-30T15:29:05.334Z,16.29
2022-08-30T15:34:10.417Z,16.01
2022-08-30T15:39:14.543Z,16.14
2022-08-30T15:44:17.529Z,16.39
2022-08-30T15:49:23.652Z,16.25
2022-08-30T15:54:26.632Z,16.25
2022-08-30T15:59:31.294Z,16.18
2022-08-30T16:04:34.248Z,16.06
2022-08-30T16:09:38.009Z,15.80
2022-08-30T16:14:41.261Z,16.08
2022-08-30T16:19:44.393Z,16.08
2022-08-30T16:24:47.169Z,15.99
2022-08-30T16:29:50.285Z,15.89
2022-08-30T16:34:53.378Z,16.01
2022-08-30T16:39:56.181Z,15.98
2022-08-30T16:44:58.960Z,15.95
2022-08-30T16:50:01.785Z,15.87
2022-08-30T16:55:06.827Z,15.76
2022-08-30T17:00:13.064Z,15.61
2022-08-30T17:05:36.725Z,15.42
2022-08-30T17:10:39.547Z,15.24
2022-08-30T17:15:46.160Z,15.16
2022-08-30T17:20:48.984Z,15.11
2022-08-30T17:25:51.804Z,15.27
2022-08-30T17:30:55.614Z,15.43
2022-08-30T17:35:58.959Z,15.10
2022-08-30T17:41:08.479Z,15.74
2022-08-30T17:46:13.989Z,15.59
2022-08-30T17:51:16.724Z,15.92
2022-08-30T17:56:19.581Z,15.80
2022-08-30T18:01:22.554Z,15.94
2022-08-30T18:06:27.081Z,16.12
2022-08-30T18:11:29.929Z,16.14
2022-08-30T18:16:35.028Z,16.07
2022-08-30T18:21:38.949Z,16.04
2022-08-30T18:26:42.935Z,15.85
2022-08-30T18:31:46.057Z,15.71
2022-08-30T18:36:48.821Z,15.60
2022-08-30T18:41:54.222Z,15.50
2022-08-30T18:47:00.521Z,15.41
2022-08-30T18:52:07.012Z,15.27
2022-08-30T18:57:10.376Z,14.95
2022-08-30T19:02:15.626Z,14.87
2022-08-30T19:07:19.457Z,15.07
2022-08-30T19:12:22.294Z,14.96
2022-08-30T19:17:26.861Z,14.90
2022-08-30T19:22:39.996Z,14.89
2022-08-30T19:27:52.537Z,14.90
2022-08-30T19:32:55.237Z,14.99
2022-08-30T19:37:58.851Z,14.87
2022-08-30T19:43:01.751Z,14.93
2022-08-30T19:48:05.328Z,14.87
2022-08-30T19:53:09.453Z,14.77
2022-08-30T19:58:13.413Z,14.37
2022-08-30T20:03:16.379Z,14.38
2022-08-30T20:08:19.660Z,14.21
2022-08-30T20:13:23.963Z,14.09
2022-08-30T20:18:27.208Z,14.01
2022-08-30T20:23:30.708Z,13.94
2022-08-30T20:28:38.784Z,13.87
2022-08-30T20:33:41.577Z,13.80
2022-08-30T20:38:44.465Z,13.76
2022-08-30T20:43:49.158Z,13.71
2022-08-30T20:48:53.182Z,13.62
2022-08-30T20:53:57.780Z,13.49
2022-08-30T20:59:03.577Z,13.18
2022-08-30T21:04:07.245Z,13.36
2022-08-30T21:09:10.443Z,13.12
2022-08-30T21:14:13.590Z,13.34
2022-08-30T21:19:16.540Z,13.27
2022-08-30T21:24:19.626Z,12.90
2022-08-30T21:29:22.477Z,12.83
2022-08-30T21:34:25.510Z,13.11
2022-08-30T21:39:28.677Z,12.73
2022-08-30T21:44:31.494Z,12.97
2022-08-30T21:49:34.615Z,12.97
2022-08-30T21:54:37.455Z,12.93
2022-08-30T21:59:40.567Z,12.51
2022-08-30T22:04:43.397Z,12.86
2022-08-30T22:09:46.386Z,12.30
2022-08-30T22:14:49.164Z,12.70
2022-08-30T22:19:52.055Z,12.70
2022-08-30T22:24:54.895Z,12.68
2022-08-30T22:29:58.154Z,12.59
2022-08-30T22:35:00.944Z,12.40
2022-08-30T22:40:04.074Z,12.50
2022-08-30T22:45:07.519Z,12.54
2022-08-30T22:50:13.690Z,12.54
2022-08-30T22:55:16.935Z,12.59
2022-08-30T23:00:20.563Z,12.39
2022-08-30T23:05:24.015Z,12.62
2022-08-30T23:10:28.576Z,12.66
2022-08-30T23:15:32.076Z,12.50
2022-08-30T23:20:34.846Z,12.60
2022-08-30T23:25:59.227Z,12.63
2022-08-30T23:31:28.204Z,12.47
2022-08-30T23:36:49.830Z,12.64
2022-08-30T23:42:11.333Z,12.60
2022-08-30T23:47:32.896Z,12.56
2022-08-30T23:52:54.201Z,12.63
2022-08-30T23:58:15.498Z,12.46
